Latest Coastal Weather Observations for Mardie

IDW60701

Issued at 12:55 pm WST Wednesday 30 July 2014 (issued every 10 minutes, with the page automatically refreshed every 10 minutes)

About coastal observations | Map of coastal stations | Coastal observations for WA | Marine services | Other Formats
Station Details ID: 005008 Name: MARDIE Lat: -21.19 Lon: 115.98 Height: 11.0 m
Data from the previous 72 hours. | See also: Recent months at Mardie
Date/Time
WST
Temp

°C
Wind Pressure Rain
since 9am
mm
Weather Cloud Vis
km
Sea
Height
m
Swell
Dir
 
Speed
knots
Gust
knots
hPa Trend Height
m
Period
s
Dir
30/12:30pm 32.1 E 8 14 1017.3 - 0.0 - - - - - - -
30/12:00pm 31.9 E 8 14 1017.8 - 0.0 - - - - - - -
30/11:30am 31.1 E 9 14 1018.2 - 0.0 - - - - - - -
30/11:00am 30.7 ESE 9 15 1018.6 - 0.0 - - - - - - -
30/10:30am 29.8 E 10 15 1019.0 - 0.0 - - - - - - -
30/10:00am 28.7 E 7 10 1019.1 - 0.0 - - - - - - -
30/09:30am 26.7 E 9 11 1019.3 - 0.0 - - - - - - -
30/09:00am 24.7 ESE 7 10 1019.1 - 0.0 - - - - - - -
30/08:30am 21.9 E 7 10 1019.0 - 0.0 - - - - - - -
30/08:00am 19.0 ESE 4 5 1018.9 - 0.0 - - - - - - -
30/07:30am 16.8 SSE 3 4 1018.5 - 0.0 - - - - - - -
30/07:00am 15.2 SE 2 3 1018.2 - 0.0 - - - - - - -
30/06:30am 15.3 SE 4 5 1018.2 - 0.0 - - - - - - -
30/06:00am 14.5 SSE 6 7 1017.7 - 0.0 - - - - - - -
30/05:30am 14.5 SSE 5 6 1017.7 - 0.0 - - - - - - -
30/05:00am 15.2 SSE 6 7 1017.4 - 0.0 - - - - - - -
30/04:30am 16.0 SSE 6 8 1017.3 - 0.0 - - - - - - -
30/04:00am 15.0 SSE 5 6 1017.3 - 0.0 - - - - - - -
30/03:30am 15.5 SSE 4 5 1017.5 - 0.0 - - - - - - -
30/03:00am 16.0 ESE 5 5 1017.4 - 0.0 - - - - - - -
30/02:30am 15.4 SSE 4 4 1017.7 - 0.0 - - - - - - -
30/02:00am 16.6 SSE 3 4 1017.9 - 0.0 - - - - - - -
30/01:30am 17.4 S 1 3 1018.2 - 0.0 - - - - - - -
30/01:00am 17.5 S 4 6 1018.3 - 0.0 - - - - - - -
30/12:30am 17.8 SSW 4 5 1018.4 - 0.0 - - - - - - -
30/12:00am 19.2 SSW 4 8 1018.4 - 0.0 - - - - - - -
 
Date/Time
WST
Temp

°C
Wind Pressure Rain
since 9am
mm
Weather Cloud Vis
km
Sea
Height
m
Swell
Dir
 
Speed
knots
Gust
knots
hPa Trend Height
m
Period
s
Dir
29/11:30pm 18.8 WSW 4 5 1018.4 - 0.0 - - - - - - -
29/11:00pm 18.6 SW 3 4 1018.5 - 0.0 - - - - - - -
29/10:30pm 19.5 NNW 1 3 1018.9 - 0.0 - - - - - - -
29/10:00pm 19.7 SSW 3 5 1018.6 - 0.0 - - - - - - -
29/09:30pm 21.1 WNW 5 8 1018.7 - 0.0 - - - - - - -
29/09:00pm 19.5 S 6 7 1018.4 - 0.0 - - - - - - -
29/08:30pm 19.6 SSW 5 5 1018.6 - 0.0 - - - - - - -
29/08:00pm 20.6 WSW 6 8 1018.2 - 0.0 - - - - - - -
29/07:30pm 21.1 NW 3 4 1018.2 - 0.0 - - - - - - -
29/07:00pm 22.3 NW 3 4 1018.0 - 0.0 - - - - - - -
29/06:30pm 23.3 NW 2 3 1017.9 - 0.0 - - - - - - -
29/06:00pm 24.9 NW 3 5 1017.5 - 0.0 - - - - - - -
29/05:30pm 26.6 N 3 6 1017.5 - 0.0 - - - - - - -
29/05:00pm 27.4 N 6 9 1017.1 - 0.0 - - - - - - -
29/04:30pm 28.1 N 8 11 1017.0 - 0.0 - - - - - - -
29/04:00pm 28.1 N 8 13 1016.8 - 0.0 - - - - - - -
29/03:30pm 28.8 N 8 13 1017.0 - 0.0 - - - - - - -
29/03:00pm 30.0 N 9 15 1016.9 - 0.0 - - - - - - -
29/02:30pm 29.6 N 10 16 1017.0 - 0.0 - - - - - - -
29/02:00pm 30.1 NNW 9 14 1017.0 - 0.0 - - - - - - -
29/01:30pm 29.5 N 13 20 1017.3 - 0.0 - - - - - - -
29/01:00pm 32.9 NNE 10 16 1017.1 - 0.0 - - - - - - -
29/12:30pm 31.3 SE 7 11 1017.6 - 0.0 - - - - - - -
29/12:00pm 30.8 E 2 4 1017.9 - 0.0 - - - - - - -
29/11:30am 30.5 E 6 9 1018.4 - 0.0 - - - - - - -
29/11:00am 30.3 E 8 11 1018.6 - 0.0 - - - - - - -
29/10:30am 29.2 ESE 9 12 1019.0 - 0.0 - - - - - - -
29/10:00am 28.1 ESE 11 13 1019.2 - 0.0 - - - - - - -
29/09:30am 26.7 ESE 11 15 1019.2 - 0.0 - - - - - - -
29/09:00am 24.9 ESE 9 13 1019.1 - 0.0 - - - - - - -
29/08:30am 22.7 SE 5 8 1018.9 - 0.0 - - - - - - -
29/08:00am 18.9 SSE 6 7 1018.6 - 0.0 - - - - - - -
29/07:30am 14.4 S 6 7 1018.4 - 0.0 - - - - - - -
29/07:00am 12.9 SSW 4 7 1018.0 - 0.0 - - - - - - -
29/06:30am 13.0 SSW 3 5 1017.9 - 0.0 - - - - - - -
29/06:00am 13.5 SSW 6 7 1017.5 - 0.0 - - - - - - -
29/05:30am 13.8 SSW 7 8 1017.5 - 0.0 - - - - - - -
29/05:00am 13.0 SSW 4 5 1017.3 - 0.0 - - - - - - -
29/04:30am 13.0 NW 3 6 1017.4 - 0.0 - - - - - - -
29/04:00am 13.9 SSW 6 7 1017.2 - 0.0 - - - - - - -
29/03:30am 14.6 S 2 4 1017.6 - 0.0 - - - - - - -
29/03:00am 14.8 S 5 6 1017.5 - 0.0 - - - - - - -
29/02:30am 15.3 S 6 7 1017.9 - 0.0 - - - - - - -
29/02:00am 15.6 SSW 4 5 1018.2 - 0.0 - - - - - - -
29/01:30am 16.0 WSW 4 6 1018.4 - 0.0 - - - - - - -
29/01:00am 16.8 WSW 4 5 1018.6 - 0.0 - - - - - - -
29/12:30am 16.5 WSW 4 5 1018.6 - 0.0 - - - - - - -
29/12:00am 17.0 WSW 2 3 1018.7 - 0.0 - - - - - - -
 
Date/Time
WST
Temp

°C
Wind Pressure Rain
since 9am
mm
Weather Cloud Vis
km
Sea
Height
m
Swell
Dir
 
Speed
knots
Gust
knots
hPa Trend Height
m
Period
s
Dir
28/11:30pm 17.4 WSW 2 3 1018.9 - 0.0 - - - - - - -
28/11:00pm 18.2 WSW 3 4 1018.8 - 0.0 - - - - - - -
28/10:30pm 18.6 WSW 4 5 1018.9 - 0.0 - - - - - - -
28/10:00pm 19.2 SW 3 3 1018.9 - 0.0 - - - - - - -
28/09:30pm 19.7 SW 1 3 1018.9 - 0.0 - - - - - - -
28/09:00pm 20.1 SW 4 5 1018.5 - 0.0 - - - - - - -
28/08:30pm 20.2 WSW 4 5 1018.3 - 0.0 - - - - - - -
28/08:00pm 21.5 WSW 5 6 1018.1 - 0.0 - - - - - - -
28/07:30pm 21.9 WSW 5 6 1018.0 - 0.0 - - - - - - -
28/07:00pm 22.9 W 5 6 1017.6 - 0.0 - - - - - - -
28/06:30pm 24.2 W 6 7 1017.4 - 0.0 - - - - - - -
28/06:00pm 25.3 W 9 12 1017.0 - 0.0 - - - - - - -
28/05:30pm 26.9 W 10 14 1016.8 - 0.0 - - - - - - -
28/05:00pm 27.7 W 11 15 1016.5 - 0.0 - - - - - - -
28/04:30pm 28.5 WNW 11 14 1016.3 - 0.0 - - - - - - -
28/04:00pm 29.0 WNW 10 13 1016.1 - 0.0 - - - - - - -
28/03:30pm 29.9 W 7 10 1016.1 - 0.0 - - - - - - -
28/03:00pm 30.1 SW 6 9 1016.2 - 0.0 - - - - - - -
28/02:30pm 30.2 W 8 12 1016.8 - 0.0 - - - - - - -
28/02:00pm 29.8 WNW 10 13 1017.1 - 0.0 - - - - - - -
28/01:30pm 29.8 SW 5 9 1017.5 - 0.0 - - - - - - -
28/01:00pm 30.1 WSW 5 10 1017.7 - 0.0 - - - - - - -
28/12:30pm 29.8 E 3 6 1018.4 - 0.0 - - - - - - -
28/12:00pm 29.1 S 4 9 1018.9 - 0.0 - - - - - - -
28/11:30am 28.4 SSW 4 11 1019.4 - 0.0 - - - - - - -
28/11:00am 28.4 S 5 8 1019.8 - 0.0 - - - - - - -
28/10:30am 27.5 SE 5 9 1020.3 - 0.0 - - - - - - -
28/10:00am 25.0 SE 4 7 1020.6 - 0.0 - - - - - - -
28/09:30am 22.9 S 2 5 1020.8 - 0.0 - - - - - - -
28/09:00am 20.1 CALM 0 1 1020.6 - 0.0 - - - - - - -
28/08:30am 17.8 W 2 5 1020.4 - 0.0 - - - - - - -
28/08:00am 15.5 SSW 2 4 1020.1 - 0.0 - - - - - - -
28/07:30am 12.8 WSW 4 5 1020.1 - 0.0 - - - - - - -
28/07:00am 11.6 NW 1 3 1019.7 - 0.0 - - - - - - -
28/06:30am 11.5 NW 3 5 1019.5 - 0.0 - - - - - - -
28/06:00am 11.5 NW 3 5 1019.3 - 0.0 - - - - - - -
28/05:30am 12.2 CALM 0 2 1019.3 - 0.0 - - - - - - -
28/05:00am 13.0 NNW 5 9 1019.3 - 0.0 - - - - - - -
28/04:30am 13.9 S 6 7 1019.0 - 0.0 - - - - - - -
28/04:00am 13.6 SSE 6 8 1019.0 - 0.0 - - - - - - -
28/03:30am 13.9 NE 3 6 1019.0 - 0.0 - - - - - - -
28/03:00am 14.0 SE 3 4 1018.7 - 0.0 - - - - - - -
28/02:30am 15.0 SSE 8 10 1018.7 - 0.0 - - - - - - -
28/02:00am 14.9 S 5 6 1018.9 - 0.0 - - - - - - -
28/01:30am 14.5 S 4 5 1019.2 - 0.0 - - - - - - -
28/01:00am 15.5 S 5 8 1019.5 - 0.0 - - - - - - -
28/12:30am 16.4 SW 5 9 1019.7 - 0.0 - - - - - - -
28/12:00am 15.9 S 6 7 1019.8 - 0.0 - - - - - - -
 
Date/Time
WST
Temp

°C
Wind Pressure Rain
since 9am
mm
Weather Cloud Vis
km
Sea
Height
m
Swell
Dir
 
Speed
knots
Gust
knots
hPa Trend Height
m
Period
s
Dir
27/11:30pm 15.7 S 5 6 1020.1 - 0.0 - - - - - - -
27/11:00pm 16.0 W 4 7 1020.1 - 0.0 - - - - - - -
27/10:30pm 16.5 SSE 4 5 1020.1 - 0.0 - - - - - - -
27/10:00pm 17.1 WSW 3 4 1020.2 - 0.0 - - - - - - -
27/09:30pm 18.1 WSW 1 2 1020.2 - 0.0 - - - - - - -
27/09:00pm 18.4 WSW 3 3 1020.0 - 0.0 - - - - - - -
27/08:30pm 19.4 WSW 4 4 1020.1 - 0.0 - - - - - - -
27/08:00pm 19.8 W 4 4 1019.9 - 0.0 - - - - - - -
27/07:30pm 20.3 W 5 6 1019.7 - 0.0 - - - - - - -
27/07:00pm 21.3 W 4 4 1019.3 - 0.0 - - - - - - -
27/06:30pm 22.3 W 3 4 1019.1 - 0.0 - - - - - - -
27/06:00pm 24.2 W 2 3 1018.7 - 0.0 - - - - - - -
27/05:30pm 25.6 W 5 7 1018.7 - 0.0 - - - - - - -
27/05:00pm 26.4 WNW 5 7 1018.4 - 0.0 - - - - - - -
27/04:30pm 27.1 WNW 5 9 1018.3 - 0.0 - - - - - - -
27/04:00pm 27.3 WNW 6 9 1018.1 - 0.0 - - - - - - -
27/03:30pm 27.0 NW 8 11 1018.1 - 0.0 - - - - - - -
27/03:00pm 27.6 NW 7 11 1017.9 - 0.0 - - - - - - -
27/02:30pm 26.8 NW 6 11 1018.1 - 0.0 - - - - - - -
27/02:00pm 27.2 NW 9 14 1018.2 - 0.0 - - - - - - -
27/01:30pm 28.0 NNW 6 9 1018.5 - 0.0 - - - - - - -
27/01:00pm 27.5 N 4 9 1018.6 - 0.0 - - - - - - -

Other Formats:

Comma delimited format used in spreadsheet applications
http://www.bom.gov.au/fwo/IDW60701/IDW60701.94306.axf

JavaScript Object Notation format (JSON) in row-major order
http://www.bom.gov.au/fwo/IDW60701/IDW60701.94306.json